createdAt,value
2019-03-15T00:00:17.906Z,104.40
2019-03-15T00:02:47.453Z,93.43
2019-03-15T00:07:54.287Z,85.80
2019-03-15T00:10:24.412Z,87.57
2019-03-15T00:12:53.881Z,84.67
2019-03-15T00:15:23.954Z,85.67
2019-03-15T00:17:53.683Z,80.03
2019-03-15T00:20:23.709Z,76.70
2019-03-15T00:22:54.346Z,86.90
2019-03-15T00:25:24.589Z,81.10
2019-03-15T00:27:54.397Z,84.23
2019-03-15T00:30:24.308Z,73.87
2019-03-15T00:32:54.058Z,76.07
2019-03-15T00:35:24.193Z,80.50
2019-03-15T00:38:02.288Z,87.17
2019-03-15T00:40:32.524Z,89.80
2019-03-15T00:43:02.353Z,83.80
2019-03-15T00:48:20.296Z,82.53
2019-03-15T00:50:49.800Z,88.30
2019-03-15T00:53:19.677Z,79.13
2019-03-15T00:55:49.226Z,78.77
2019-03-15T00:58:19.707Z,84.93
2019-03-15T01:00:49.707Z,89.27
2019-03-15T01:03:19.324Z,80.40
2019-03-15T01:05:50.014Z,87.07
2019-03-15T01:08:19.900Z,88.53
2019-03-15T01:10:50.711Z,93.10
2019-03-15T01:13:21.154Z,114.03
2019-03-15T01:15:50.849Z,156.93
2019-03-15T01:18:20.452Z,154.57
2019-03-15T01:20:50.327Z,161.23
2019-03-15T01:23:20.234Z,131.90
2019-03-15T01:25:49.928Z,142.10
2019-03-15T01:28:19.643Z,119.03
2019-03-15T01:30:49.574Z,118.73
2019-03-15T01:33:19.629Z,119.30
2019-03-15T01:35:50.072Z,118.47
2019-03-15T01:38:19.808Z,131.20
2019-03-15T01:40:50.171Z,126.20
2019-03-15T01:43:20.070Z,126.10
2019-03-15T01:45:50.088Z,125.47
2019-03-15T01:48:20.503Z,123.43
2019-03-15T01:50:50.574Z,116.97
2019-03-15T01:53:23.464Z,118.17
2019-03-15T01:55:54.090Z,112.87
2019-03-15T01:58:23.903Z,114.23
2019-03-15T02:00:53.787Z,116.53
2019-03-15T02:03:23.803Z,113.17
2019-03-15T02:05:56.713Z,119.60
2019-03-15T02:08:27.514Z,124.20
2019-03-15T02:10:58.317Z,119.47
2019-03-15T02:13:29.093Z,116.87
2019-03-15T02:16:00.354Z,109.03
2019-03-15T02:18:30.694Z,112.43
2019-03-15T02:21:01.739Z,111.10
2019-03-15T02:23:32.226Z,118.50
2019-03-15T02:26:03.617Z,109.07
2019-03-15T02:31:10.549Z,110.40
2019-03-15T02:33:42.612Z,119.80
2019-03-15T02:36:13.945Z,119.97
2019-03-15T02:38:45.910Z,112.90
2019-03-15T02:41:17.794Z,117.97
2019-03-15T02:43:47.954Z,111.33
2019-03-15T02:46:21.638Z,112.17
2019-03-15T02:48:55.531Z,111.67
2019-03-15T02:51:28.947Z,107.63
2019-03-15T02:54:01.130Z,112.40
2019-03-15T02:56:32.307Z,107.13
2019-03-15T02:59:06.836Z,107.37
2019-03-15T03:01:37.831Z,102.20
2019-03-15T03:04:11.149Z,96.03
2019-03-15T03:06:43.761Z,99.03
2019-03-15T03:09:16.167Z,110.70
2019-03-15T03:11:50.328Z,108.13
2019-03-15T03:14:21.691Z,109.63
2019-03-15T03:16:59.475Z,98.13
2019-03-15T03:19:32.716Z,99.03
2019-03-15T03:22:04.821Z,107.97
2019-03-15T03:24:39.040Z,104.17
2019-03-15T03:27:14.319Z,100.80
2019-03-15T03:29:50.053Z,111.87
2019-03-15T03:32:21.701Z,96.20
2019-03-15T03:34:55.103Z,97.97
2019-03-15T03:37:28.465Z,87.73
2019-03-15T03:40:02.355Z,94.77
2019-03-15T03:42:33.884Z,88.30
2019-03-15T03:45:05.280Z,87.07
2019-03-15T03:47:38.809Z,88.37
2019-03-15T03:50:12.246Z,77.40
2019-03-15T03:52:45.808Z,64.07
2019-03-15T03:55:19.327Z,69.53
2019-03-15T03:57:55.541Z,80.40
2019-03-15T04:00:27.092Z,67.23
2019-03-15T04:02:59.172Z,74.00
2019-03-15T04:08:10.148Z,75.37
2019-03-15T04:10:43.855Z,75.67
2019-03-15T04:13:14.849Z,75.73
2019-03-15T04:15:47.580Z,77.97
2019-03-15T04:18:19.395Z,80.20
2019-03-15T04:20:54.848Z,76.77
2019-03-15T04:23:26.432Z,85.37
2019-03-15T04:25:58.398Z,81.87
2019-03-15T04:28:30.511Z,73.67
2019-03-15T04:31:00.503Z,76.28
2019-03-15T04:33:30.832Z,67.13
2019-03-15T04:36:00.952Z,74.63
2019-03-15T04:38:31.015Z,76.13
2019-03-15T04:41:00.809Z,72.00
2019-03-15T04:43:30.399Z,69.57
2019-03-15T04:46:00.376Z,78.53
2019-03-15T04:48:32.986Z,85.40
2019-03-15T04:51:02.904Z,65.97
2019-03-15T04:53:32.659Z,63.67
2019-03-15T04:56:02.566Z,61.85
2019-03-15T04:58:32.370Z,69.13
2019-03-15T05:01:02.477Z,60.65
2019-03-15T05:03:32.748Z,63.45
2019-03-15T05:06:04.911Z,73.30
2019-03-15T05:08:35.591Z,67.33
2019-03-15T05:11:05.583Z,71.37
2019-03-15T05:13:35.547Z,62.53
2019-03-15T05:16:05.050Z,61.00
2019-03-15T05:18:34.816Z,64.03
2019-03-15T05:21:04.500Z,75.20
2019-03-15T05:23:34.951Z,64.67
2019-03-15T05:26:04.881Z,56.70
2019-03-15T05:28:34.889Z,53.30
2019-03-15T05:31:04.827Z,54.55
2019-03-15T05:33:35.075Z,59.42
2019-03-15T05:36:05.229Z,61.58
2019-03-15T05:38:35.286Z,57.80
2019-03-15T05:41:05.376Z,63.60
2019-03-15T05:43:36.271Z,66.33
2019-03-15T05:46:06.038Z,59.55
2019-03-15T05:48:36.474Z,59.83
2019-03-15T05:51:06.976Z,56.43
2019-03-15T05:53:37.440Z,54.20
2019-03-15T05:56:07.483Z,52.48
2019-03-15T05:58:37.389Z,51.63
2019-03-15T06:01:09.292Z,55.10
2019-03-15T06:03:48.543Z,53.38
2019-03-15T06:06:10.657Z,50.35
2019-03-15T06:08:43.128Z,54.25
2019-03-15T06:11:14.245Z,50.35
2019-03-15T06:13:44.498Z,49.03
2019-03-15T06:16:15.586Z,46.08
2019-03-15T06:18:48.176Z,48.52
2019-03-15T06:21:18.342Z,45.57
2019-03-15T06:23:51.303Z,45.28
2019-03-15T06:26:21.806Z,51.15
2019-03-15T06:28:52.162Z,41.73
2019-03-15T06:31:22.702Z,42.53
2019-03-15T06:33:53.286Z,44.98
2019-03-15T06:36:24.467Z,48.95
2019-03-15T06:38:54.953Z,51.25
2019-03-15T06:41:24.906Z,61.65
2019-03-15T06:43:55.805Z,55.23
2019-03-15T06:46:26.245Z,54.10
2019-03-15T06:48:56.573Z,59.00
2019-03-15T06:51:29.681Z,53.50
2019-03-15T06:54:10.912Z,59.98
2019-03-15T06:56:31.970Z,60.05
2019-03-15T06:59:02.569Z,59.15
2019-03-15T07:01:34.088Z,50.70
2019-03-15T07:04:04.471Z,62.48
2019-03-15T07:06:35.459Z,51.63
2019-03-15T07:09:07.276Z,61.55
2019-03-15T07:11:37.509Z,65.97
2019-03-15T07:14:08.004Z,64.05
2019-03-15T07:19:25.657Z,63.00
2019-03-15T07:21:47.024Z,63.63
2019-03-15T07:24:25.084Z,58.48
2019-03-15T07:26:50.226Z,75.78
2019-03-15T07:29:21.479Z,55.98
2019-03-15T07:31:53.916Z,66.50
2019-03-15T07:34:23.951Z,57.45
2019-03-15T07:36:55.356Z,56.65
2019-03-15T07:39:29.229Z,60.85
2019-03-15T07:41:59.936Z,65.92
2019-03-15T07:44:32.995Z,66.90
2019-03-15T07:47:03.294Z,61.02
2019-03-15T07:49:35.379Z,60.80
2019-03-15T07:52:06.011Z,55.12
2019-03-15T07:54:38.199Z,56.43
2019-03-15T07:57:07.152Z,56.77
2019-03-15T07:59:37.608Z,56.45
2019-03-15T08:02:08.548Z,58.15
2019-03-15T08:04:38.910Z,56.77
2019-03-15T08:07:10.070Z,61.97
2019-03-15T08:09:40.758Z,62.25
2019-03-15T08:12:11.718Z,70.83
2019-03-15T08:14:46.063Z,73.15
2019-03-15T08:17:16.749Z,66.55
2019-03-15T08:19:47.176Z,65.83
2019-03-15T08:22:20.530Z,61.48
2019-03-15T08:24:51.959Z,68.85
2019-03-15T08:27:23.398Z,77.97
2019-03-15T08:29:53.949Z,80.77
2019-03-15T08:32:24.957Z,82.15
2019-03-15T08:34:55.527Z,79.77
2019-03-15T08:37:28.939Z,82.40
2019-03-15T08:39:59.440Z,85.57
2019-03-15T08:42:30.065Z,86.10
2019-03-15T08:45:00.456Z,150.95
2019-03-15T08:47:31.121Z,86.90
2019-03-15T08:50:02.633Z,94.13
2019-03-15T08:52:32.610Z,95.10
2019-03-15T08:55:05.396Z,95.15
2019-03-15T08:57:35.644Z,90.97
2019-03-15T09:00:06.031Z,95.03
2019-03-15T09:02:38.127Z,104.03
2019-03-15T09:05:09.585Z,99.60
2019-03-15T09:07:41.541Z,88.47
2019-03-15T09:10:22.625Z,85.77
2019-03-15T09:12:44.828Z,229.80
2019-03-15T09:15:15.631Z,101.83
2019-03-15T09:17:48.930Z,86.10
2019-03-15T09:20:18.947Z,89.80
2019-03-15T09:22:48.932Z,82.37
2019-03-15T09:25:21.088Z,81.20
2019-03-15T09:27:53.890Z,89.43
2019-03-15T09:30:24.695Z,82.00
2019-03-15T09:32:57.274Z,130.47
2019-03-15T09:35:34.294Z,80.42
2019-03-15T09:38:05.203Z,74.20
2019-03-15T09:40:38.301Z,79.20
2019-03-15T09:43:09.552Z,69.12
2019-03-15T09:45:41.793Z,79.30
2019-03-15T09:48:12.765Z,71.60
2019-03-15T09:50:51.084Z,75.85
2019-03-15T09:53:16.125Z,115.80
2019-03-15T09:55:49.451Z,76.60
2019-03-15T09:58:20.070Z,68.42
2019-03-15T10:00:51.759Z,73.13
2019-03-15T10:03:22.709Z,70.08
2019-03-15T10:05:52.596Z,69.17
2019-03-15T10:08:23.720Z,72.03
2019-03-15T10:10:53.735Z,80.90
2019-03-15T10:13:24.561Z,92.87
2019-03-15T10:15:55.827Z,70.60
2019-03-15T10:18:26.231Z,65.73
2019-03-15T10:20:56.952Z,77.90
2019-03-15T10:23:26.993Z,88.53
2019-03-15T10:25:57.454Z,72.30
2019-03-15T10:28:27.761Z,68.80
2019-03-15T10:30:58.167Z,102.12
2019-03-15T10:33:28.614Z,226.00
2019-03-15T10:35:59.341Z,162.50
2019-03-15T10:38:29.752Z,67.07
2019-03-15T10:41:01.209Z,56.27
2019-03-15T10:43:31.855Z,51.97
2019-03-15T10:46:05.894Z,56.73
2019-03-15T10:48:35.873Z,67.23
2019-03-15T10:51:06.209Z,71.37
2019-03-15T10:53:36.643Z,56.77
2019-03-15T10:56:07.304Z,45.47
2019-03-15T10:58:37.723Z,53.43
2019-03-15T11:01:08.843Z,48.93
2019-03-15T11:03:38.838Z,45.33
2019-03-15T11:06:09.918Z,44.07
2019-03-15T11:08:39.656Z,45.67
2019-03-15T11:11:09.421Z,45.13
2019-03-15T11:13:39.532Z,47.87
2019-03-15T11:16:09.911Z,43.93
2019-03-15T11:18:40.099Z,42.13
2019-03-15T11:21:10.253Z,49.47
2019-03-15T11:23:39.942Z,45.97
2019-03-15T11:26:13.885Z,46.73
2019-03-15T11:28:41.279Z,42.37
2019-03-15T11:31:11.758Z,47.87
2019-03-15T11:33:47.262Z,46.30
2019-03-15T11:36:15.613Z,44.93
2019-03-15T11:38:46.139Z,46.10
2019-03-15T11:41:18.113Z,55.23
2019-03-15T11:43:49.932Z,51.63
2019-03-15T11:46:21.902Z,53.40
2019-03-15T11:48:52.425Z,49.30
2019-03-15T11:51:22.494Z,53.30
2019-03-15T11:53:55.362Z,49.80
2019-03-15T11:56:27.179Z,60.23
2019-03-15T11:58:59.942Z,566.53
2019-03-15T12:01:30.046Z,169.27
2019-03-15T12:04:00.229Z,72.30
2019-03-15T12:06:30.131Z,112.50
2019-03-15T12:09:01.388Z,156.67
2019-03-15T12:11:32.580Z,103.87
2019-03-15T12:14:02.838Z,87.60
2019-03-15T12:16:33.643Z,319.23
2019-03-15T12:19:04.474Z,814.87
2019-03-15T12:21:35.446Z,649.30
2019-03-15T12:26:51.206Z,280.60
2019-03-15T12:29:21.047Z,170.10
2019-03-15T12:31:51.218Z,341.53
2019-03-15T12:34:21.215Z,185.40
2019-03-15T12:36:50.561Z,106.00
2019-03-15T12:39:20.825Z,87.87
2019-03-15T12:41:51.597Z,78.80
2019-03-15T12:44:21.861Z,84.33
2019-03-15T12:46:52.556Z,77.20
2019-03-15T12:49:25.495Z,70.60
2019-03-15T12:51:53.536Z,62.67
2019-03-15T12:54:23.274Z,56.90
2019-03-15T12:56:55.198Z,61.60
2019-03-15T12:59:25.382Z,65.47
2019-03-15T13:01:55.657Z,58.47
2019-03-15T13:04:25.303Z,56.83
2019-03-15T13:06:54.854Z,48.37
2019-03-15T13:09:24.321Z,50.90
2019-03-15T13:11:53.960Z,50.43
2019-03-15T13:14:24.239Z,53.30
2019-03-15T13:16:53.742Z,47.53
2019-03-15T13:19:23.562Z,46.63
2019-03-15T13:21:53.313Z,49.80
2019-03-15T13:24:23.195Z,45.13
2019-03-15T13:27:02.700Z,47.53
2019-03-15T13:29:24.053Z,48.93
2019-03-15T13:31:54.879Z,50.57
2019-03-15T13:34:24.911Z,52.10
2019-03-15T13:36:55.772Z,49.03
2019-03-15T13:39:35.409Z,46.40
2019-03-15T13:42:06.196Z,44.87
2019-03-15T13:47:09.115Z,34.87
2019-03-15T13:49:39.694Z,40.73
2019-03-15T13:52:10.073Z,30.87
2019-03-15T13:54:41.156Z,32.07
2019-03-15T13:57:21.160Z,34.03
2019-03-15T13:59:44.230Z,30.80
2019-03-15T14:02:13.876Z,31.23
2019-03-15T14:04:46.303Z,31.67
2019-03-15T14:07:19.762Z,31.47
2019-03-15T14:09:57.179Z,33.07
2019-03-15T14:12:28.282Z,31.67
2019-03-15T14:14:58.752Z,27.80
2019-03-15T14:17:30.179Z,34.03
2019-03-15T14:20:01.735Z,29.03
2019-03-15T14:22:32.576Z,28.47
2019-03-15T14:25:02.949Z,31.50
2019-03-15T14:27:37.277Z,30.17
2019-03-15T14:30:04.995Z,31.30
2019-03-15T14:32:38.461Z,29.77
2019-03-15T14:35:09.328Z,28.63
2019-03-15T14:37:40.360Z,28.87
2019-03-15T14:40:13.749Z,33.03
2019-03-15T14:42:43.660Z,28.60
2019-03-15T14:45:15.852Z,29.87
2019-03-15T14:47:45.690Z,26.93
2019-03-15T14:50:15.131Z,31.73
2019-03-15T14:52:44.896Z,29.03
2019-03-15T14:55:15.887Z,32.47
2019-03-15T14:57:52.647Z,28.57
2019-03-15T15:00:16.698Z,33.07
2019-03-15T15:02:46.465Z,46.93
2019-03-15T15:05:16.313Z,34.50
2019-03-15T15:07:46.350Z,37.63
2019-03-15T15:10:16.388Z,37.17
2019-03-15T15:12:46.508Z,34.17
2019-03-15T15:15:16.214Z,35.07
2019-03-15T16:04:26.975Z,42.57
2019-03-15T16:07:07.170Z,40.17
2019-03-15T16:09:48.203Z,41.53
2019-03-15T16:12:28.646Z,42.43
2019-03-15T16:15:09.182Z,41.53
2019-03-15T16:17:49.781Z,46.00
2019-03-15T16:20:30.443Z,40.40
2019-03-15T16:23:10.455Z,41.57
2019-03-15T16:25:51.392Z,37.67
2019-03-15T16:28:34.541Z,37.33
2019-03-15T16:31:12.698Z,38.73
2019-03-15T16:33:53.400Z,46.57
2019-03-15T16:36:34.590Z,40.97
2019-03-15T16:39:15.632Z,40.27
2019-03-15T16:41:56.535Z,37.03
2019-03-15T16:44:37.793Z,45.70
2019-03-15T16:47:19.151Z,59.90
2019-03-15T16:50:00.508Z,46.13
2019-03-15T16:52:41.653Z,41.33
2019-03-15T16:55:22.592Z,41.13
2019-03-15T16:58:03.589Z,48.70
2019-03-15T17:00:45.098Z,36.40
2019-03-15T17:03:26.439Z,39.37
2019-03-15T17:06:07.746Z,41.47
2019-03-15T17:08:48.700Z,39.03
2019-03-15T17:11:30.023Z,36.77
2019-03-15T17:14:24.732Z,39.60
2019-03-15T17:16:54.267Z,35.37
2019-03-15T17:19:34.894Z,32.60
2019-03-15T17:22:15.631Z,35.30
2019-03-15T17:24:55.952Z,30.30
2019-03-15T17:27:36.418Z,35.57
2019-03-15T17:30:17.891Z,32.23
2019-03-15T17:32:58.656Z,31.37
2019-03-15T17:35:39.256Z,27.40
2019-03-15T17:38:20.105Z,31.97
2019-03-15T17:41:01.402Z,31.77
2019-03-15T17:43:42.477Z,28.77
2019-03-15T17:46:24.336Z,30.23
2019-03-15T17:49:05.478Z,32.10
2019-03-15T17:51:46.960Z,29.83
2019-03-15T17:54:27.796Z,25.67
2019-03-15T17:57:09.062Z,31.97
2019-03-15T17:59:50.320Z,26.67
2019-03-15T18:02:31.450Z,32.83
2019-03-15T18:05:12.277Z,27.77
2019-03-15T18:07:53.598Z,31.43
2019-03-15T18:10:34.555Z,30.97
2019-03-15T18:13:15.396Z,30.57
2019-03-15T18:15:56.881Z,27.67
2019-03-15T18:18:37.742Z,30.43
2019-03-15T18:21:18.379Z,31.50
2019-03-15T18:23:59.080Z,36.07
2019-03-15T18:26:39.965Z,31.73
2019-03-15T18:29:26.187Z,34.57
2019-03-15T18:32:02.744Z,34.97
2019-03-15T18:34:43.452Z,37.90
2019-03-15T18:37:23.880Z,36.70
2019-03-15T18:40:04.641Z,36.10
2019-03-15T18:42:45.131Z,31.47
2019-03-15T18:45:25.216Z,32.57
2019-03-15T18:48:05.603Z,35.70
2019-03-15T18:50:46.984Z,35.50
2019-03-15T18:53:28.143Z,30.53
2019-03-15T18:56:09.226Z,33.63
2019-03-15T18:58:50.542Z,33.30
2019-03-15T19:01:31.182Z,32.57
2019-03-15T19:04:11.852Z,31.70
2019-03-15T19:06:52.360Z,29.57
2019-03-15T19:09:32.827Z,32.97
2019-03-15T19:12:13.530Z,36.13
2019-03-15T19:14:54.093Z,31.10
2019-03-15T19:17:34.642Z,31.27
2019-03-15T19:20:15.027Z,34.80
2019-03-15T19:22:55.336Z,36.50
2019-03-15T19:25:35.745Z,36.80
2019-03-15T19:28:16.315Z,34.27
2019-03-15T19:30:56.438Z,35.60
2019-03-15T19:33:36.811Z,34.33
2019-03-15T19:36:17.398Z,35.27
2019-03-15T19:38:57.978Z,38.13
2019-03-15T19:41:38.891Z,35.67
2019-03-15T19:44:19.207Z,36.37
2019-03-15T19:46:59.533Z,38.90
2019-03-15T19:49:39.965Z,32.97
2019-03-15T19:52:20.146Z,35.33
2019-03-15T19:55:01.062Z,37.97
2019-03-15T19:57:41.634Z,32.27
2019-03-15T20:00:22.175Z,34.57
2019-03-15T20:03:02.593Z,37.03
2019-03-15T20:05:43.022Z,36.67
2019-03-15T20:08:23.925Z,40.03
2019-03-15T20:11:04.407Z,42.33
2019-03-15T20:13:44.731Z,35.17
2019-03-15T20:16:25.391Z,34.60
2019-03-15T20:19:05.772Z,38.00
2019-03-15T20:21:46.573Z,39.97
2019-03-15T20:24:27.152Z,37.87
2019-03-15T20:27:07.441Z,46.30
2019-03-15T20:29:48.187Z,37.10
2019-03-15T20:32:29.090Z,41.23
2019-03-15T20:35:09.548Z,41.77
2019-03-15T20:37:49.811Z,39.50
2019-03-15T20:40:30.854Z,49.57
2019-03-15T20:43:11.132Z,41.83
2019-03-15T20:45:51.725Z,38.33
2019-03-15T20:48:32.924Z,36.03
2019-03-15T20:51:14.000Z,43.43
2019-03-15T20:53:54.814Z,37.73
2019-03-15T20:56:35.374Z,31.37
2019-03-15T20:59:16.765Z,26.83
2019-03-15T21:01:57.465Z,28.80
2019-03-15T21:04:38.114Z,30.33
2019-03-15T21:07:18.407Z,27.00
2019-03-15T21:09:59.363Z,28.27
2019-03-15T21:12:39.998Z,33.00
2019-03-15T21:15:21.607Z,28.40
2019-03-15T21:18:02.637Z,27.50
2019-03-15T21:20:43.545Z,29.80
2019-03-15T21:23:24.500Z,34.83
2019-03-15T21:26:05.201Z,31.40
2019-03-15T21:28:46.096Z,30.13
2019-03-15T21:31:26.759Z,33.37
2019-03-15T21:34:07.898Z,30.93
2019-03-15T21:36:48.966Z,34.03
2019-03-15T21:39:29.643Z,32.83
2019-03-15T21:42:09.938Z,31.83
2019-03-15T21:44:50.250Z,31.03
2019-03-15T21:47:31.054Z,31.13
2019-03-15T21:50:12.452Z,32.30
2019-03-15T21:52:53.773Z,29.20
2019-03-15T21:55:34.749Z,31.53
2019-03-15T21:58:15.690Z,29.37
2019-03-15T22:01:02.155Z,32.17
2019-03-15T22:03:38.255Z,33.93
2019-03-15T22:06:19.306Z,32.73
2019-03-15T22:09:00.491Z,32.07
2019-03-15T22:11:41.340Z,35.40
2019-03-15T22:14:22.092Z,32.53
2019-03-15T22:17:03.102Z,28.80
2019-03-15T22:19:43.780Z,29.93
2019-03-15T22:22:24.669Z,30.40
2019-03-15T22:25:05.279Z,32.27
2019-03-15T22:27:49.800Z,29.23
2019-03-15T22:30:27.600Z,31.07
2019-03-15T22:33:08.170Z,34.03
2019-03-15T22:35:48.559Z,33.53
2019-03-15T22:38:29.498Z,32.87
2019-03-15T22:41:10.441Z,32.63
2019-03-15T22:43:51.062Z,32.30
2019-03-15T22:46:32.116Z,36.50
2019-03-15T22:49:12.533Z,33.93
2019-03-15T22:51:53.081Z,36.07
2019-03-15T22:54:33.663Z,34.40
2019-03-15T22:57:13.729Z,33.37
2019-03-15T22:59:54.222Z,33.73
2019-03-15T23:02:34.531Z,32.30
2019-03-15T23:05:14.939Z,33.17
2019-03-15T23:07:55.034Z,36.90
2019-03-15T23:10:35.657Z,34.70
2019-03-15T23:13:15.977Z,37.00
2019-03-15T23:15:56.521Z,36.17
2019-03-15T23:18:37.097Z,36.20
2019-03-15T23:21:17.692Z,41.77
2019-03-15T23:23:58.031Z,37.90
2019-03-15T23:26:38.596Z,44.63
